Time,TemperatureF,DewpointF,PressureIn,WindDirection,WindDirectionDegrees,WindSpeedMPH,WindSpeedGustMPH,Humidity,HourlyPrecipIn,Conditions,Clouds,dailyrainin,SoftwareType,DateUTC
2013-02-14 00:00:00,37.0,27.5,28.82,East,90,0.0,0.0,68,0.00,RA,SCT,0.00,WeatherDisplay:10.37,2013-02-14 05:00:00,
2013-02-14 00:05:00,36.9,27.3,28.82,ESE,112,0.0,0.0,68,0.00,RA,SCT,0.00,WeatherDisplay:10.37,2013-02-14 05:05:00,
2013-02-14 00:10:00,36.9,27.6,28.85,SE,135,0.0,0.0,69,0.00,CLR,SCT,0.00,WeatherDisplay:10.37,2013-02-14 05:10:00,
2013-02-14 00:15:00,36.5,26.9,28.85,East,90,0.0,0.0,68,0.00,CLR,SCT,0.00,WeatherDisplay:10.37,2013-02-14 05:15:00,
2013-02-14 00:20:00,36.3,27.1,28.85,East,90,0.0,0.0,69,0.00,CLR,SCT,0.00,WeatherDisplay:10.37,2013-02-14 05:20:00,
2013-02-14 00:25:00,36.1,26.9,28.85,East,90,0.0,0.0,69,0.00,CLR,SCT,0.00,WeatherDisplay:10.37,2013-02-14 05:25:00,
2013-02-14 00:30:00,35.8,26.6,28.85,East,90,0.0,0.0,69,0.00,CLR,SCT,0.00,WeatherDisplay:10.37,2013-02-14 05:30:00,
2013-02-14 00:35:00,35.6,26.4,28.85,East,90,0.0,0.0,69,0.00,CLR,SCT,0.00,WeatherDisplay:10.37,2013-02-14 05:35:00,
2013-02-14 00:40:00,35.4,26.6,28.85,East,90,0.0,0.0,70,0.00,CLR,SCT,0.00,WeatherDisplay:10.37,2013-02-14 05:40:00,
2013-02-14 00:45:00,35.2,26.4,28.85,South,180,0.0,0.0,70,0.00,CLR,SCT,0.00,WeatherDisplay:10.37,2013-02-14 05:45:00,
2013-02-14 00:50:00,35.1,26.3,28.85,ENE,68,0.0,0.0,70,0.00,CLR,SCT,0.00,WeatherDisplay:10.37,2013-02-14 05:50:00,
2013-02-14 00:55:00,34.9,26.4,28.85,ENE,68,0.0,0.0,71,0.00,CLR,SCT,0.00,WeatherDisplay:10.37,2013-02-14 05:55:00,
2013-02-14 01:00:00,34.9,26.4,28.85,ENE,68,0.0,0.0,71,0.00,CLR,SCT,0.00,WeatherDisplay:10.37,2013-02-14 06:00:00,
2013-02-14 01:05:00,34.7,26.6,28.85,NNE,22,0.0,0.0,72,0.00,CLR,SCT,0.00,WeatherDisplay:10.37,2013-02-14 06:05:00,
2013-02-14 01:10:00,34.5,26.4,28.85,NE,45,0.0,0.0,72,0.00,CLR,SCT,0.00,WeatherDisplay:10.37,2013-02-14 06:10:00,
2013-02-14 01:15:00,34.7,26.9,28.85,NE,45,0.0,0.0,73,0.00,CLR,SCT,0.00,WeatherDisplay:10.37,2013-02-14 06:15:00,
2013-02-14 01:20:00,34.7,27.3,28.85,NE,45,0.0,0.0,74,0.00,CLR,SCT,0.00,WeatherDisplay:10.37,2013-02-14 06:20:00,
2013-02-14 01:25:00,34.3,26.6,28.85,NE,45,0.0,0.0,73,0.00,CLR,SCT,0.00,WeatherDisplay:10.37,2013-02-14 06:25:00,
2013-02-14 01:30:00,34.0,26.2,28.85,NE,45,0.0,0.0,73,0.00,CLR,SCT,0.00,WeatherDisplay:10.37,2013-02-14 06:30:00,
2013-02-14 01:35:00,33.8,26.1,28.85,WSW,248,0.0,0.0,73,0.00,CLR,SCT,0.00,WeatherDisplay:10.37,2013-02-14 06:35:00,
2013-02-14 01:40:00,33.8,25.7,28.85,West,270,0.0,0.0,72,0.00,CLR,SCT,0.00,WeatherDisplay:10.37,2013-02-14 06:40:00,
2013-02-14 01:45:00,33.6,25.6,28.85,WNW,292,1.1,0.0,72,0.00,CLR,SCT,0.00,WeatherDisplay:10.37,2013-02-14 06:45:00,
2013-02-14 01:50:00,33.4,25.7,28.85,WNW,292,0.0,0.0,73,0.00,CLR,SCT,0.00,WeatherDisplay:10.37,2013-02-14 06:50:00,
2013-02-14 01:55:00,33.3,25.9,28.88,South,180,0.0,0.0,74,0.00,CLR,SCT,0.00,WeatherDisplay:10.37,2013-02-14 06:55:00,
2013-02-14 02:00:00,33.3,26.2,28.88,SSE,158,0.0,0.0,75,0.00,CLR,SCT,0.00,WeatherDisplay:10.37,2013-02-14 07:00:00,
2013-02-14 02:05:00,33.3,26.2,28.88,SE,135,0.0,0.0,75,0.00,CLR,SCT,0.00,WeatherDisplay:10.37,2013-02-14 07:05:00,
2013-02-14 02:10:00,33.1,26.0,28.88,SE,135,0.0,0.0,75,0.00,CLR,SCT,0.00,WeatherDisplay:10.37,2013-02-14 07:10:00,
2013-02-14 02:15:00,33.1,26.3,28.88,SE,135,0.0,0.0,76,0.00,CLR,SCT,0.00,WeatherDisplay:10.37,2013-02-14 07:15:00,
2013-02-14 02:20:00,32.9,26.2,28.88,SE,135,0.0,0.0,76,0.00,CLR,SCT,0.00,WeatherDisplay:10.37,2013-02-14 07:20:00,
2013-02-14 02:25:00,32.9,26.2,28.88,SSE,158,0.0,0.0,76,0.00,CLR,SCT,0.00,WeatherDisplay:10.37,2013-02-14 07:25:00,
2013-02-14 02:30:00,32.7,26.0,28.88,SW,225,0.0,0.0,76,0.00,CLR,SCT,0.00,WeatherDisplay:10.37,2013-02-14 07:30:00,
2013-02-14 02:35:00,32.5,25.8,28.88,SW,225,0.0,0.0,76,0.00,CLR,SCT,0.00,WeatherDisplay:10.37,2013-02-14 07:35:00,
2013-02-14 02:40:00,32.4,25.6,28.88,SW,225,0.0,0.0,76,0.00,CLR,SCT,0.00,WeatherDisplay:10.37,2013-02-14 07:40:00,
2013-02-14 02:45:00,32.4,25.6,28.88,SW,225,0.0,0.0,76,0.00,CLR,SCT,0.00,WeatherDisplay:10.37,2013-02-14 07:45:00,
2013-02-14 02:50:00,32.2,25.5,28.88,SW,225,0.0,0.0,76,0.00,CLR,SCT,0.00,WeatherDisplay:10.37,2013-02-14 07:50:00,
2013-02-14 02:55:00,32.0,25.3,28.88,SW,225,0.0,0.0,76,0.00,CLR,SCT,0.00,WeatherDisplay:10.37,2013-02-14 07:55:00,
2013-02-14 03:00:00,32.0,25.3,28.88,SW,225,0.0,0.0,76,0.00,CLR,SCT,0.00,WeatherDisplay:10.37,2013-02-14 08:00:00,
2013-02-14 03:05:00,31.8,25.1,28.88,SW,225,0.0,0.0,76,0.00,CLR,SCT,0.00,WeatherDisplay:10.37,2013-02-14 08:05:00,
2013-02-14 03:10:00,31.6,25.3,28.88,SW,225,0.0,0.0,77,0.00,CLR,SCT,0.00,WeatherDisplay:10.37,2013-02-14 08:10:00,
2013-02-14 03:15:00,31.5,24.8,28.88,SW,225,0.0,0.0,76,0.00,CLR,SCT,0.00,WeatherDisplay:10.37,2013-02-14 08:15:00,
2013-02-14 03:20:00,31.3,24.6,28.88,SW,225,0.0,0.0,76,0.00,CLR,SCT,0.00,WeatherDisplay:10.37,2013-02-14 08:20:00,
2013-02-14 03:25:00,31.3,24.9,28.88,SW,225,0.0,0.0,77,0.00,CLR,SCT,0.00,WeatherDisplay:10.37,2013-02-14 08:25:00,
2013-02-14 03:30:00,31.1,24.7,28.88,SW,225,0.0,0.0,77,0.00,CLR,SCT,0.00,WeatherDisplay:10.37,2013-02-14 08:30:00,
2013-02-14 03:35:00,31.1,24.7,28.88,SW,225,0.0,0.0,77,0.00,CLR,SCT,0.00,WeatherDisplay:10.37,2013-02-14 08:35:00,
2013-02-14 03:40:00,30.9,24.6,28.88,SW,225,0.0,0.0,77,0.00,CLR,SCT,0.00,WeatherDisplay:10.37,2013-02-14 08:40:00,
2013-02-14 03:45:00,30.9,24.6,28.88,SW,225,0.0,0.0,77,0.00,CLR,SCT,0.00,WeatherDisplay:10.37,2013-02-14 08:45:00,
2013-02-14 03:50:00,30.7,24.1,28.88,SW,225,0.0,0.0,76,0.00,CLR,SCT,0.00,WeatherDisplay:10.37,2013-02-14 08:50:00,
2013-02-14 03:55:00,30.6,23.9,28.88,SW,225,0.0,0.0,76,0.00,CLR,SCT,0.00,WeatherDisplay:10.37,2013-02-14 08:55:00,
2013-02-14 04:00:00,30.6,23.9,28.88,SW,225,0.0,0.0,76,0.00,CLR,SCT,0.00,WeatherDisplay:10.37,2013-02-14 09:00:00,
2013-02-14 04:05:00,30.6,24.2,28.88,SW,225,0.0,0.0,77,0.00,CLR,SCT,0.00,WeatherDisplay:10.37,2013-02-14 09:05:00,
2013-02-14 04:10:00,30.4,24.0,28.91,SW,225,0.0,0.0,77,0.00,CLR,SCT,0.00,WeatherDisplay:10.37,2013-02-14 09:10:00,
2013-02-14 04:15:00,30.4,24.0,28.91,SW,225,0.0,0.0,77,0.00,CLR,SCT,0.00,WeatherDisplay:10.37,2013-02-14 09:15:00,
2013-02-14 04:20:00,30.2,23.9,28.91,SW,225,0.0,0.0,77,0.00,CLR,SCT,0.00,WeatherDisplay:10.37,2013-02-14 09:20:00,
2013-02-14 04:25:00,30.2,23.9,28.91,SW,225,0.0,0.0,77,0.00,CLR,SCT,0.00,WeatherDisplay:10.37,2013-02-14 09:25:00,
2013-02-14 04:30:00,30.2,24.2,28.91,SW,225,0.0,0.0,78,0.00,CLR,SCT,0.00,WeatherDisplay:10.37,2013-02-14 09:30:00,
2013-02-14 04:35:00,30.2,24.2,28.91,SW,225,0.0,0.0,78,0.00,CLR,SCT,0.00,WeatherDisplay:10.37,2013-02-14 09:35:00,
2013-02-14 04:40:00,30.0,24.0,28.91,SW,225,0.0,0.0,78,0.00,CLR,SCT,0.00,WeatherDisplay:10.37,2013-02-14 09:40:00,
2013-02-14 04:45:00,30.0,24.0,28.91,SW,225,0.0,0.0,78,0.00,CLR,SCT,0.00,WeatherDisplay:10.37,2013-02-14 09:45:00,
2013-02-14 04:50:00,29.8,23.8,28.91,SW,225,0.0,0.0,78,0.00,CLR,SCT,0.00,WeatherDisplay:10.37,2013-02-14 09:50:00,
2013-02-14 04:55:00,29.8,23.8,28.91,SW,225,0.0,0.0,78,0.00,CLR,SCT,0.00,WeatherDisplay:10.37,2013-02-14 09:55:00,
2013-02-14 05:00:00,29.7,23.6,28.91,SW,225,0.0,0.0,78,0.00,CLR,SCT,0.00,WeatherDisplay:10.37,2013-02-14 10:00:00,
2013-02-14 05:05:00,29.7,23.6,28.91,SW,225,0.0,0.0,78,0.00,CLR,SCT,0.00,WeatherDisplay:10.37,2013-02-14 10:05:00,
2013-02-14 05:10:00,29.5,23.5,28.91,SW,225,0.0,0.0,78,0.00,CLR,SCT,0.00,WeatherDisplay:10.37,2013-02-14 10:10:00,
2013-02-14 05:15:00,29.5,23.5,28.91,SW,225,0.0,0.0,78,0.00,CLR,SCT,0.00,WeatherDisplay:10.37,2013-02-14 10:15:00,
2013-02-14 05:20:00,29.5,23.5,28.91,SW,225,0.0,0.0,78,0.00,CLR,SCT,0.00,WeatherDisplay:10.37,2013-02-14 10:20:00,
2013-02-14 05:25:00,29.5,23.5,28.91,SW,225,0.0,0.0,78,0.00,CLR,SCT,0.00,WeatherDisplay:10.37,2013-02-14 10:25:00,
2013-02-14 05:30:00,29.5,23.5,28.91,SW,225,0.0,0.0,78,0.00,CLR,SCT,0.00,WeatherDisplay:10.37,2013-02-14 10:30:00,
2013-02-14 05:35:00,29.5,23.5,28.91,SW,225,0.0,0.0,78,0.00,CLR,SCT,0.00,WeatherDisplay:10.37,2013-02-14 10:35:00,
2013-02-14 05:40:00,29.3,23.3,28.91,SW,225,0.0,0.0,78,0.00,CLR,SCT,0.00,WeatherDisplay:10.37,2013-02-14 10:40:00,
2013-02-14 05:45:00,29.3,23.3,28.91,SW,225,0.0,0.0,78,0.00,CLR,SCT,0.00,WeatherDisplay:10.37,2013-02-14 10:45:00,
2013-02-14 05:50:00,29.3,23.3,28.91,SW,225,0.0,0.0,78,0.00,CLR,SCT,0.00,WeatherDisplay:10.37,2013-02-14 10:50:00,
2013-02-14 05:55:00,29.3,23.3,28.91,SW,225,0.0,0.0,78,0.00,CLR,SCT,0.00,WeatherDisplay:10.37,2013-02-14 10:55:00,
2013-02-14 06:00:00,29.3,23.3,28.91,SW,225,0.0,0.0,78,0.00,CLR,SCT,0.00,WeatherDisplay:10.37,2013-02-14 11:00:00,
2013-02-14 06:05:00,29.3,23.3,28.91,SW,225,0.0,0.0,78,0.00,CLR,SCT,0.00,WeatherDisplay:10.37,2013-02-14 11:05:00,
2013-02-14 06:10:00,29.1,23.1,28.91,SW,225,0.0,0.0,78,0.00,CLR,SCT,0.00,WeatherDisplay:10.37,2013-02-14 11:10:00,
2013-02-14 06:15:00,29.1,23.1,28.91,SW,225,0.0,0.0,78,0.00,CLR,SCT,0.00,WeatherDisplay:10.37,2013-02-14 11:15:00,
2013-02-14 06:20:00,29.1,23.1,28.91,SW,225,0.0,0.0,78,0.00,CLR,SCT,0.00,WeatherDisplay:10.37,2013-02-14 11:20:00,
2013-02-14 06:25:00,28.9,22.9,28.91,SW,225,0.0,0.0,78,0.00,CLR,SCT,0.00,WeatherDisplay:10.37,2013-02-14 11:25:00,
2013-02-14 06:30:00,28.9,22.9,28.91,SW,225,0.0,0.0,78,0.00,CLR,SCT,0.00,WeatherDisplay:10.37,2013-02-14 11:30:00,
2013-02-14 06:35:00,28.9,23.2,28.91,SW,225,0.0,0.0,79,0.00,CLR,SCT,0.00,WeatherDisplay:10.37,2013-02-14 11:35:00,
2013-02-14 06:40:00,28.8,23.1,28.94,SW,225,0.0,0.0,79,0.00,CLR,SCT,0.00,WeatherDisplay:10.37,2013-02-14 11:40:00,
2013-02-14 06:45:00,28.8,23.1,28.94,SW,225,0.0,0.0,79,0.00,CLR,SCT,0.00,WeatherDisplay:10.37,2013-02-14 11:45:00,
2013-02-14 06:50:00,28.8,23.1,28.94,SW,225,0.0,0.0,79,0.00,CLR,SCT,0.00,WeatherDisplay:10.37,2013-02-14 11:50:00,
2013-02-14 06:55:00,28.6,22.9,28.94,SW,225,0.0,0.0,79,0.00,CLR,SCT,0.00,WeatherDisplay:10.37,2013-02-14 11:55:00,
2013-02-14 07:00:00,28.6,22.9,28.94,SW,225,0.0,0.0,79,0.00,CLR,SCT,0.00,WeatherDisplay:10.37,2013-02-14 12:00:00,
2013-02-14 07:05:00,28.6,22.9,28.94,SW,225,0.0,0.0,79,0.00,CLR,SCT,0.00,WeatherDisplay:10.37,2013-02-14 12:05:00,
2013-02-14 07:10:00,28.6,22.9,28.97,SW,225,0.0,0.0,79,0.00,CLR,SCT,0.00,WeatherDisplay:10.37,2013-02-14 12:10:00,
2013-02-14 07:15:00,28.4,22.7,28.97,SW,225,0.0,0.0,79,0.00,CLR,SCT,0.00,WeatherDisplay:10.37,2013-02-14 12:15:00,
2013-02-14 07:20:00,28.6,22.9,28.97,SW,225,0.0,0.0,79,0.00,CLR,SCT,0.00,WeatherDisplay:10.37,2013-02-14 12:20:00,
2013-02-14 07:25:00,28.6,22.9,28.97,SW,225,0.0,0.0,79,0.00,CLR,SCT,0.00,WeatherDisplay:10.37,2013-02-14 12:25:00,
2013-02-14 07:30:00,28.8,23.4,28.97,SW,225,0.0,0.0,80,0.00,CLR,SCT,0.00,WeatherDisplay:10.37,2013-02-14 12:30:00,
2013-02-14 07:35:00,28.8,23.4,28.97,SW,225,0.0,0.0,80,0.00,CLR,SCT,0.00,WeatherDisplay:10.37,2013-02-14 12:35:00,
2013-02-14 07:40:00,29.1,23.7,28.97,SW,225,0.0,0.0,80,0.00,CLR,SCT,0.00,WeatherDisplay:10.37,2013-02-14 12:40:00,
2013-02-14 07:45:00,29.3,23.9,28.97,SW,225,0.0,0.0,80,0.00,CLR,SCT,0.00,WeatherDisplay:10.37,2013-02-14 12:45:00,
2013-02-14 07:50:00,29.5,24.1,28.97,SW,225,0.0,0.0,80,0.00,CLR,SCT,0.00,WeatherDisplay:10.37,2013-02-14 12:50:00,
2013-02-14 07:55:00,29.5,24.1,29.00,SW,225,0.0,0.0,80,0.00,CLR,SCT,0.00,WeatherDisplay:10.37,2013-02-14 12:55:00,
2013-02-14 08:00:00,29.7,24.2,29.00,SW,225,0.0,0.0,80,0.00,CLR,SCT,0.00,WeatherDisplay:10.37,2013-02-14 13:00:00,
2013-02-14 08:05:00,30.0,24.6,29.00,SW,225,0.0,0.0,80,0.00,CLR,SCT,0.00,WeatherDisplay:10.37,2013-02-14 13:05:00,
2013-02-14 08:10:00,30.4,24.9,29.00,SW,225,0.0,0.0,80,0.00,CLR,SCT,0.00,WeatherDisplay:10.37,2013-02-14 13:10:00,
2013-02-14 08:15:00,30.9,25.8,29.00,SW,225,0.0,0.0,81,0.00,CLR,SCT,0.00,WeatherDisplay:10.37,2013-02-14 13:15:00,
2013-02-14 08:20:00,31.3,26.4,29.00,SW,225,0.0,0.0,82,0.00,CLR,SCT,0.00,WeatherDisplay:10.37,2013-02-14 13:20:00,
2013-02-14 08:25:00,31.6,26.8,29.00,SW,225,0.0,0.0,82,0.00,CLR,SCT,0.00,WeatherDisplay:10.37,2013-02-14 13:25:00,
2013-02-14 08:30:00,32.0,26.8,29.00,SW,225,1.1,0.0,81,0.00,CLR,SCT,0.00,WeatherDisplay:10.37,2013-02-14 13:30:00,
2013-02-14 08:35:00,32.4,27.2,29.00,SW,225,0.0,0.0,81,0.00,CLR,SCT,0.00,WeatherDisplay:10.37,2013-02-14 13:35:00,
2013-02-14 08:40:00,32.7,27.8,29.00,SW,225,0.0,0.0,82,0.00,CLR,SCT,0.00,WeatherDisplay:10.37,2013-02-14 13:40:00,
2013-02-14 08:45:00,33.1,28.2,29.00,SW,225,0.0,0.0,82,0.00,CLR,SCT,0.00,WeatherDisplay:10.37,2013-02-14 13:45:00,
2013-02-14 08:50:00,33.3,28.4,29.00,SW,225,0.0,0.0,82,0.00,CLR,SCT,0.00,WeatherDisplay:10.37,2013-02-14 13:50:00,
2013-02-14 08:55:00,33.4,28.5,29.00,SW,225,0.0,0.0,82,0.00,CLR,SCT,0.00,WeatherDisplay:10.37,2013-02-14 13:55:00,
2013-02-14 09:00:00,33.8,28.6,29.00,SW,225,0.0,0.0,81,0.00,CLR,SCT,0.00,WeatherDisplay:10.37,2013-02-14 14:00:00,
2013-02-14 09:05:00,34.2,28.9,29.00,SW,225,1.1,1.1,81,0.00,CLR,SCT,0.00,WeatherDisplay:10.37,2013-02-14 14:05:00,
2013-02-14 09:10:00,34.5,29.6,29.00,WSW,248,2.3,2.3,82,0.00,CLR,SCT,0.00,WeatherDisplay:10.37,2013-02-14 14:10:00,
2013-02-14 09:15:00,34.9,29.9,29.00,WSW,248,1.1,0.0,82,0.00,CLR,SCT,0.00,WeatherDisplay:10.37,2013-02-14 14:15:00,
2013-02-14 09:20:00,35.2,30.6,29.00,WSW,248,1.1,1.1,83,0.00,CLR,SCT,0.00,WeatherDisplay:10.37,2013-02-14 14:20:00,
2013-02-14 09:25:00,35.6,30.6,29.00,WSW,248,0.0,0.0,82,0.00,CLR,SCT,0.00,WeatherDisplay:10.37,2013-02-14 14:25:00,
2013-02-14 09:30:00,36.1,31.5,29.00,WSW,248,0.0,0.0,83,0.00,CLR,SCT,0.00,WeatherDisplay:10.37,2013-02-14 14:30:00,
2013-02-14 09:35:00,36.7,32.0,29.00,WSW,248,0.0,0.0,83,0.00,CLR,SCT,0.00,WeatherDisplay:10.37,2013-02-14 14:35:00,
2013-02-14 09:40:00,37.0,32.4,29.03,WSW,248,0.0,0.0,83,0.00,CLR,SCT,0.00,WeatherDisplay:10.37,2013-02-14 14:40:00,
2013-02-14 09:45:00,37.4,32.7,29.03,WSW,248,0.0,0.0,83,0.00,CLR,SCT,0.00,WeatherDisplay:10.37,2013-02-14 14:45:00,
2013-02-14 09:50:00,38.7,34.2,29.03,North,0,0.0,0.0,84,0.00,CLR,SCT,0.00,WeatherDisplay:10.37,2013-02-14 14:50:00,
2013-02-14 09:55:00,39.4,34.9,29.03,North,0,0.0,0.0,84,0.00,CLR,SCT,0.00,WeatherDisplay:10.37,2013-02-14 14:55:00,
2013-02-14 10:00:00,40.1,35.7,29.03,WNW,292,0.0,0.0,84,0.00,CLR,SCT,0.00,WeatherDisplay:10.37,2013-02-14 15:00:00,
2013-02-14 10:05:00,41.0,36.2,29.03,WNW,292,0.0,0.0,83,0.00,CLR,SCT,0.00,WeatherDisplay:10.37,2013-02-14 15:05:00,
2013-02-14 10:10:00,41.4,36.6,29.03,WNW,292,0.0,0.0,83,0.00,CLR,SCT,0.00,WeatherDisplay:10.37,2013-02-14 15:10:00,
2013-02-14 10:15:00,41.7,36.3,29.03,WNW,292,0.0,0.0,81,0.00,CLR,SCT,0.00,WeatherDisplay:10.37,2013-02-14 15:15:00,
2013-02-14 10:20:00,42.3,36.2,29.03,WNW,292,0.0,0.0,79,0.00,CLR,SCT,0.00,WeatherDisplay:10.37,2013-02-14 15:20:00,
2013-02-14 10:25:00,42.4,35.7,29.03,WNW,292,0.0,0.0,77,0.00,CLR,SCT,0.00,WeatherDisplay:10.37,2013-02-14 15:25:00,
2013-02-14 10:30:00,42.6,35.2,29.03,WNW,292,0.0,0.0,75,0.00,CLR,SCT,0.00,WeatherDisplay:10.37,2013-02-14 15:30:00,
2013-02-14 10:35:00,43.2,35.4,29.03,WNW,292,1.1,0.0,74,0.00,CLR,SCT,0.00,WeatherDisplay:10.37,2013-02-14 15:35:00,
2013-02-14 10:40:00,44.1,36.3,29.03,ESE,112,1.1,0.0,74,0.00,CLR,SCT,0.00,WeatherDisplay:10.37,2013-02-14 15:40:00,
2013-02-14 10:45:00,45.5,37.7,29.03,ESE,112,1.1,0.0,74,0.00,CLR,SCT,0.00,WeatherDisplay:10.37,2013-02-14 15:45:00,
2013-02-14 10:50:00,46.2,36.2,29.03,ESE,112,0.0,0.0,68,0.00,CLR,SCT,0.00,WeatherDisplay:10.37,2013-02-14 15:50:00,
2013-02-14 10:55:00,46.6,35.4,29.03,East,90,0.0,0.0,65,0.00,CLR,SCT,0.00,WeatherDisplay:10.37,2013-02-14 15:55:00,
2013-02-14 11:00:00,46.8,34.4,29.03,ESE,112,1.1,0.0,62,0.00,CLR,SCT,0.00,WeatherDisplay:10.37,2013-02-14 16:00:00,
2013-02-14 11:05:00,47.1,33.5,29.03,East,90,1.1,0.0,59,0.00,CLR,SCT,0.00,WeatherDisplay:10.37,2013-02-14 16:05:00,
2013-02-14 11:10:00,46.9,32.5,29.03,NE,45,1.1,1.4,57,0.00,CLR,SCT,0.00,WeatherDisplay:10.37,2013-02-14 16:10:00,
2013-02-14 11:15:00,46.8,31.4,29.03,NE,45,0.0,0.0,55,0.00,CLR,SCT,0.00,WeatherDisplay:10.37,2013-02-14 16:15:00,
2013-02-14 11:20:00,46.9,30.2,29.03,NNE,22,1.1,1.1,52,0.00,CLR,SCT,0.00,WeatherDisplay:10.37,2013-02-14 16:20:00,
2013-02-14 11:25:00,47.8,31.5,29.03,NE,45,0.0,0.0,53,0.00,CLR,SCT,0.00,WeatherDisplay:10.37,2013-02-14 16:25:00,
2013-02-14 11:30:00,48.9,32.0,29.03,ESE,112,1.6,0.0,52,0.00,CLR,SCT,0.00,WeatherDisplay:10.37,2013-02-14 16:30:00,
2013-02-14 11:35:00,49.8,30.4,29.03,NNE,22,2.9,2.9,47,0.00,CLR,SCT,0.00,WeatherDisplay:10.37,2013-02-14 16:35:00,
2013-02-14 11:40:00,50.4,29.8,29.03,North,0,1.4,1.4,45,0.00,CLR,SCT,0.00,WeatherDisplay:10.37,2013-02-14 16:40:00,
2013-02-14 11:45:00,50.4,28.7,29.03,ESE,112,2.3,2.3,43,0.00,CLR,SCT,0.00,WeatherDisplay:10.37,2013-02-14 16:45:00,
2013-02-14 11:50:00,50.5,28.3,29.03,ESE,112,2.3,2.3,42,0.00,CLR,SCT,0.00,WeatherDisplay:10.37,2013-02-14 16:50:00,
2013-02-14 11:55:00,50.4,26.3,29.03,East,90,2.3,2.3,39,0.00,CLR,SCT,0.00,WeatherDisplay:10.37,2013-02-14 16:55:00,
2013-02-14 12:00:00,50.5,27.1,29.03,ENE,68,1.1,1.4,40,0.00,CLR,SCT,0.00,WeatherDisplay:10.37,2013-02-14 17:00:00,
2013-02-14 12:05:00,50.4,26.3,29.03,East,90,2.3,2.3,39,0.00,CLR,SCT,0.00,WeatherDisplay:10.37,2013-02-14 17:05:00,
2013-02-14 12:10:00,50.4,25.7,29.03,ESE,112,2.3,2.3,38,0.00,CLR,SCT,0.00,WeatherDisplay:10.37,2013-02-14 17:10:00,
2013-02-14 12:15:00,50.5,25.8,29.03,NE,45,2.3,2.3,38,0.00,CLR,SCT,0.00,WeatherDisplay:10.37,2013-02-14 17:15:00,
2013-02-14 12:20:00,50.9,26.2,29.03,East,90,2.3,2.3,38,0.00,CLR,SCT,0.00,WeatherDisplay:10.37,2013-02-14 17:20:00,
2013-02-14 12:25:00,50.9,26.2,29.03,SE,135,2.3,2.3,38,0.00,CLR,SCT,0.00,WeatherDisplay:10.37,2013-02-14 17:25:00,
2013-02-14 12:30:00,50.7,24.7,29.03,ESE,112,2.3,2.3,36,0.00,CLR,SCT,0.00,WeatherDisplay:10.37,2013-02-14 17:30:00,
2013-02-14 12:35:00,51.3,25.8,29.03,ENE,68,2.3,2.3,37,0.00,CLR,SCT,0.00,WeatherDisplay:10.37,2013-02-14 17:35:00,
2013-02-14 12:40:00,51.6,26.2,29.00,SW,225,2.3,2.3,37,0.00,CLR,SCT,0.00,WeatherDisplay:10.37,2013-02-14 17:40:00,
2013-02-14 12:45:00,52.2,25.3,29.00,SE,135,2.3,2.3,35,0.00,CLR,SCT,0.00,WeatherDisplay:10.37,2013-02-14 17:45:00,
2013-02-14 12:50:00,52.2,23.9,29.00,ENE,68,2.3,2.3,33,0.00,CLR,SCT,0.00,WeatherDisplay:10.37,2013-02-14 17:50:00,
2013-02-14 12:55:00,52.9,24.5,29.00,SSE,158,2.3,2.3,33,0.00,CLR,SCT,0.00,WeatherDisplay:10.37,2013-02-14 17:55:00,
2013-02-14 13:00:00,54.0,26.2,29.00,SE,135,2.2,2.2,34,0.00,CLR,SCT,0.00,WeatherDisplay:10.37,2013-02-14 18:00:00,
2013-02-14 13:05:00,54.7,26.1,29.00,West,270,2.4,2.4,33,0.00,CLR,SCT,0.00,WeatherDisplay:10.37,2013-02-14 18:05:00,
2013-02-14 13:10:00,55.0,24.1,28.97,ESE,112,1.1,0.0,30,0.00,CLR,SCT,0.00,WeatherDisplay:10.37,2013-02-14 18:10:00,
2013-02-14 13:15:00,55.4,24.4,28.97,NE,45,2.3,2.3,30,0.00,CLR,SCT,0.00,WeatherDisplay:10.37,2013-02-14 18:15:00,
2013-02-14 13:20:00,55.9,24.9,28.97,NNE,22,2.2,2.2,30,0.00,CLR,SCT,0.00,WeatherDisplay:10.37,2013-02-14 18:20:00,
2013-02-14 13:25:00,54.9,23.2,28.97,South,180,2.3,2.3,29,0.00,CLR,SCT,0.00,WeatherDisplay:10.37,2013-02-14 18:25:00,
2013-02-14 13:30:00,55.4,23.6,28.97,South,180,2.4,2.4,29,0.00,CLR,SCT,0.00,WeatherDisplay:10.37,2013-02-14 18:30:00,
2013-02-14 13:35:00,56.5,23.7,28.97,SSE,158,2.6,2.6,28,0.00,CLR,SCT,0.00,WeatherDisplay:10.37,2013-02-14 18:35:00,
2013-02-14 13:40:00,56.7,23.9,28.94,SE,135,2.3,2.3,28,0.00,CLR,SCT,0.00,WeatherDisplay:10.37,2013-02-14 18:40:00,
2013-02-14 13:45:00,55.9,23.3,28.94,NNW,338,1.1,0.0,28,0.00,CLR,SCT,0.00,WeatherDisplay:10.37,2013-02-14 18:45:00,
2013-02-14 13:50:00,55.4,21.9,28.94,ESE,112,2.0,0.0,27,0.00,CLR,SCT,0.00,WeatherDisplay:10.37,2013-02-14 18:50:00,
2013-02-14 13:55:00,55.0,22.5,28.97,South,180,2.3,0.0,28,0.00,CLR,SCT,0.00,WeatherDisplay:10.37,2013-02-14 18:55:00,
2013-02-14 14:00:00,55.2,22.6,28.97,NE,45,1.1,0.0,28,0.00,CLR,SCT,0.00,WeatherDisplay:10.37,2013-02-14 19:00:00,
2013-02-14 14:05:00,55.6,23.0,28.97,SW,225,1.1,0.0,28,0.00,CLR,SCT,0.00,WeatherDisplay:10.37,2013-02-14 19:05:00,
2013-02-14 14:10:00,55.4,22.8,28.97,South,180,2.3,2.3,28,0.00,CLR,SCT,0.00,WeatherDisplay:10.37,2013-02-14 19:10:00,
2013-02-14 14:15:00,55.2,22.6,28.97,West,270,2.3,2.3,28,0.00,CLR,SCT,0.00,WeatherDisplay:10.37,2013-02-14 19:15:00,
2013-02-14 14:20:00,55.0,22.5,28.97,WSW,248,2.3,2.3,28,0.00,CLR,SCT,0.00,WeatherDisplay:10.37,2013-02-14 19:20:00,
2013-02-14 14:25:00,55.2,22.6,28.97,NE,45,1.1,0.0,28,0.00,CLR,SCT,0.00,WeatherDisplay:10.37,2013-02-14 19:25:00,
2013-02-14 14:30:00,55.0,22.5,28.97,WSW,248,2.3,2.3,28,0.00,CLR,SCT,0.00,WeatherDisplay:10.37,2013-02-14 19:30:00,
2013-02-14 14:35:00,55.2,23.5,28.97,WSW,248,2.3,2.3,29,0.00,CLR,SCT,0.00,WeatherDisplay:10.37,2013-02-14 19:35:00,
2013-02-14 14:40:00,55.2,22.6,28.97,SW,225,1.4,1.4,28,0.00,CLR,SCT,0.00,WeatherDisplay:10.37,2013-02-14 19:40:00,
2013-02-14 14:45:00,54.7,22.2,28.97,South,180,2.4,2.4,28,0.00,CLR,SCT,0.00,WeatherDisplay:10.37,2013-02-14 19:45:00,
2013-02-14 14:50:00,54.7,22.2,28.97,SSE,158,2.3,2.3,28,0.00,CLR,SCT,0.00,WeatherDisplay:10.37,2013-02-14 19:50:00,
2013-02-14 14:55:00,55.0,22.5,28.97,SW,225,2.3,2.3,28,0.00,CLR,SCT,0.00,WeatherDisplay:10.37,2013-02-14 19:55:00,
2013-02-14 15:00:00,55.0,21.6,28.97,SSE,158,2.2,2.2,27,0.00,CLR,SCT,0.00,WeatherDisplay:10.37,2013-02-14 20:00:00,
2013-02-14 15:05:00,54.9,21.5,28.97,SW,225,2.3,2.3,27,0.00,CLR,SCT,0.00,WeatherDisplay:10.37,2013-02-14 20:05:00,
2013-02-14 15:10:00,54.9,21.5,28.97,West,270,1.6,1.6,27,0.00,CLR,SCT,0.00,WeatherDisplay:10.37,2013-02-14 20:10:00,
2013-02-14 15:15:00,54.5,21.2,28.97,North,0,1.1,1.4,27,0.00,CLR,SCT,0.00,WeatherDisplay:10.37,2013-02-14 20:15:00,
2013-02-14 15:20:00,54.7,21.3,28.97,West,270,2.3,2.3,27,0.00,CLR,SCT,0.00,WeatherDisplay:10.37,2013-02-14 20:20:00,
2013-02-14 15:25:00,54.5,22.0,28.97,ESE,112,2.3,2.3,28,0.00,CLR,SCT,0.00,WeatherDisplay:10.37,2013-02-14 20:25:00,
2013-02-14 15:30:00,54.1,20.8,28.97,SE,135,2.3,2.3,27,0.00,CLR,SCT,0.00,WeatherDisplay:10.37,2013-02-14 20:30:00,
2013-02-14 15:35:00,54.0,20.7,28.97,SW,225,2.3,2.3,27,0.00,CLR,SCT,0.00,WeatherDisplay:10.37,2013-02-14 20:35:00,
2013-02-14 15:40:00,54.1,21.7,28.97,South,180,2.3,2.3,28,0.00,CLR,SCT,0.00,WeatherDisplay:10.37,2013-02-14 20:40:00,
2013-02-14 15:45:00,54.1,21.7,28.97,SSW,202,1.1,0.0,28,0.00,CLR,SCT,0.00,WeatherDisplay:10.37,2013-02-14 20:45:00,
2013-02-14 15:50:00,54.5,22.0,28.97,ENE,68,1.1,0.0,28,0.00,CLR,SCT,0.00,WeatherDisplay:10.37,2013-02-14 20:50:00,
2013-02-14 15:55:00,54.1,21.7,28.97,SW,225,2.3,0.0,28,0.00,CLR,SCT,0.00,WeatherDisplay:10.37,2013-02-14 20:55:00,
2013-02-14 16:00:00,54.3,21.9,28.97,SSW,202,2.3,2.3,28,0.00,CLR,SCT,0.00,WeatherDisplay:10.37,2013-02-14 21:00:00,
2013-02-14 16:05:00,54.7,22.2,28.97,SE,135,1.1,0.0,28,0.00,CLR,SCT,0.00,WeatherDisplay:10.37,2013-02-14 21:05:00,
2013-02-14 16:10:00,55.2,22.6,28.97,South,180,1.1,0.0,28,0.00,CLR,SCT,0.00,WeatherDisplay:10.37,2013-02-14 21:10:00,
2013-02-14 16:15:00,55.2,22.6,28.97,WSW,248,1.1,0.0,28,0.00,CLR,SCT,0.00,WeatherDisplay:10.37,2013-02-14 21:15:00,
2013-02-14 16:20:00,54.5,22.0,28.97,SE,135,1.1,1.4,28,0.00,CLR,SCT,0.00,WeatherDisplay:10.37,2013-02-14 21:20:00,
2013-02-14 16:25:00,54.5,22.0,28.97,East,90,0.0,0.0,28,0.00,CLR,SCT,0.00,WeatherDisplay:10.37,2013-02-14 21:25:00,
2013-02-14 16:30:00,54.3,21.9,28.97,WSW,248,2.3,2.3,28,0.00,CLR,SCT,0.00,WeatherDisplay:10.37,2013-02-14 21:30:00,
2013-02-14 16:35:00,54.0,21.6,28.97,SW,225,1.1,0.0,28,0.00,CLR,SCT,0.00,WeatherDisplay:10.37,2013-02-14 21:35:00,
2013-02-14 16:40:00,53.4,21.1,28.97,South,180,0.0,0.0,28,0.00,CLR,SCT,0.00,WeatherDisplay:10.37,2013-02-14 21:40:00,
2013-02-14 16:45:00,53.2,20.9,28.97,South,180,0.0,0.0,28,0.00,CLR,SCT,0.00,WeatherDisplay:10.37,2013-02-14 21:45:00,
2013-02-14 16:50:00,53.2,20.9,28.97,WNW,292,1.6,1.6,28,0.00,CLR,SCT,0.00,WeatherDisplay:10.37,2013-02-14 21:50:00,
2013-02-14 16:55:00,53.1,20.8,28.94,NE,45,1.1,0.0,28,0.00,CLR,SCT,0.00,WeatherDisplay:10.37,2013-02-14 21:55:00,
2013-02-14 17:00:00,52.9,20.6,28.94,SSW,202,0.0,0.0,28,0.00,CLR,SCT,0.00,WeatherDisplay:10.37,2013-02-14 22:00:00,
2013-02-14 17:05:00,53.1,20.8,28.94,ESE,112,1.1,1.1,28,0.00,CLR,SCT,0.00,WeatherDisplay:10.37,2013-02-14 22:05:00,
2013-02-14 17:10:00,52.3,20.2,28.94,ENE,68,0.0,0.0,28,0.00,CLR,SCT,0.00,WeatherDisplay:10.37,2013-02-14 22:10:00,
2013-02-14 17:15:00,51.6,20.4,28.94,ESE,112,1.1,0.0,29,0.00,CLR,SCT,0.00,WeatherDisplay:10.37,2013-02-14 22:15:00,
2013-02-14 17:20:00,51.1,19.9,28.94,ESE,112,0.0,0.0,29,0.00,CLR,SCT,0.00,WeatherDisplay:10.37,2013-02-14 22:20:00,
2013-02-14 17:25:00,50.5,19.4,28.94,ESE,112,0.0,0.0,29,0.00,CLR,SCT,0.00,WeatherDisplay:10.37,2013-02-14 22:25:00,
2013-02-14 17:30:00,50.2,19.1,28.94,ESE,112,0.0,0.0,29,0.00,CLR,SCT,0.00,WeatherDisplay:10.37,2013-02-14 22:30:00,
2013-02-14 17:35:00,49.6,19.4,28.94,ESE,112,0.0,0.0,30,0.00,CLR,SCT,0.00,WeatherDisplay:10.37,2013-02-14 22:35:00,
2013-02-14 17:40:00,49.1,19.0,28.94,ESE,112,0.0,0.0,30,0.00,CLR,SCT,0.00,WeatherDisplay:10.37,2013-02-14 22:40:00,
2013-02-14 17:45:00,48.7,18.6,28.94,ESE,112,0.0,0.0,30,0.00,CLR,SCT,0.00,WeatherDisplay:10.37,2013-02-14 22:45:00,
2013-02-14 17:50:00,48.6,18.5,28.94,ESE,112,0.0,0.0,30,0.00,CLR,SCT,0.00,WeatherDisplay:10.37,2013-02-14 22:50:00,
2013-02-14 17:55:00,48.2,18.9,28.94,ESE,112,0.0,0.0,31,0.00,CLR,SCT,0.00,WeatherDisplay:10.37,2013-02-14 22:55:00,
2013-02-14 18:00:00,47.8,18.6,28.94,ESE,112,0.0,0.0,31,0.00,CLR,SCT,0.00,WeatherDisplay:10.37,2013-02-14 23:00:00,
2013-02-14 18:05:00,47.7,18.5,28.94,ESE,112,0.0,0.0,31,0.00,CLR,SCT,0.00,WeatherDisplay:10.37,2013-02-14 23:05:00,
2013-02-14 18:10:00,47.1,18.7,28.94,East,90,0.0,0.0,32,0.00,CLR,SCT,0.00,WeatherDisplay:10.37,2013-02-14 23:10:00,
2013-02-14 18:15:00,46.9,18.6,28.94,East,90,0.0,0.0,32,0.00,CLR,SCT,0.00,WeatherDisplay:10.37,2013-02-14 23:15:00,
2013-02-14 18:20:00,46.6,19.0,28.94,East,90,0.0,0.0,33,0.00,CLR,SCT,0.00,WeatherDisplay:10.37,2013-02-14 23:20:00,
2013-02-14 18:25:00,46.0,19.2,28.94,East,90,0.0,0.0,34,0.00,CLR,SCT,0.00,WeatherDisplay:10.37,2013-02-14 23:25:00,
2013-02-14 18:30:00,45.9,19.0,28.94,East,90,0.0,0.0,34,0.00,CLR,SCT,0.00,WeatherDisplay:10.37,2013-02-14 23:30:00,
2013-02-14 18:35:00,45.5,19.4,28.94,East,90,0.0,0.0,35,0.00,CLR,SCT,0.00,WeatherDisplay:10.37,2013-02-14 23:35:00,
2013-02-14 18:40:00,45.1,19.1,28.97,East,90,0.0,0.0,35,0.00,CLR,SCT,0.00,WeatherDisplay:10.37,2013-02-14 23:40:00,
2013-02-14 18:45:00,45.1,19.7,28.97,East,90,0.0,0.0,36,0.00,CLR,SCT,0.00,WeatherDisplay:10.37,2013-02-14 23:45:00,
2013-02-14 18:50:00,45.1,19.7,28.97,SE,135,0.0,0.0,36,0.00,CLR,SCT,0.00,WeatherDisplay:10.37,2013-02-14 23:50:00,
2013-02-14 18:55:00,44.8,20.1,28.97,SE,135,0.0,0.0,37,0.00,CLR,SCT,0.00,WeatherDisplay:10.37,2013-02-14 23:55:00,
2013-02-14 19:00:00,44.4,20.4,28.97,East,90,0.0,0.0,38,0.00,CLR,SCT,0.00,WeatherDisplay:10.37,2013-02-15 00:00:00,
2013-02-14 19:05:00,43.9,19.9,28.97,East,90,0.0,0.0,38,0.00,CLR,SCT,0.00,WeatherDisplay:10.37,2013-02-15 00:05:00,
2013-02-14 19:10:00,43.5,19.6,28.97,East,90,0.0,0.0,38,0.00,CLR,SCT,0.00,WeatherDisplay:10.37,2013-02-15 00:10:00,
2013-02-14 19:15:00,43.2,19.2,28.97,East,90,0.0,0.0,38,0.00,CLR,SCT,0.00,WeatherDisplay:10.37,2013-02-15 00:15:00,
2013-02-14 19:20:00,43.0,19.1,28.97,East,90,0.0,0.0,38,0.00,CLR,SCT,0.00,WeatherDisplay:10.37,2013-02-15 00:20:00,
2013-02-14 19:25:00,42.8,19.5,28.94,East,90,0.0,0.0,39,0.00,CLR,SCT,0.00,WeatherDisplay:10.37,2013-02-15 00:25:00,
2013-02-14 19:30:00,42.4,19.8,28.94,East,90,0.0,0.0,40,0.00,CLR,SCT,0.00,WeatherDisplay:10.37,2013-02-15 00:30:00,
2013-02-14 19:35:00,42.1,19.5,28.94,East,90,0.0,0.0,40,0.00,CLR,SCT,0.00,WeatherDisplay:10.37,2013-02-15 00:35:00,
2013-02-14 19:40:00,41.5,19.0,28.97,East,90,0.0,0.0,40,0.00,CLR,SCT,0.00,WeatherDisplay:10.37,2013-02-15 00:40:00,
2013-02-14 19:45:00,41.2,19.2,28.97,East,90,0.0,0.0,41,0.00,CLR,SCT,0.00,WeatherDisplay:10.37,2013-02-15 00:45:00,
2013-02-14 19:50:00,40.8,19.5,28.97,East,90,0.0,0.0,42,0.00,CLR,SCT,0.00,WeatherDisplay:10.37,2013-02-15 00:50:00,
2013-02-14 19:55:00,40.5,19.1,28.97,East,90,0.0,0.0,42,0.00,CLR,SCT,0.00,WeatherDisplay:10.37,2013-02-15 00:55:00,
2013-02-14 20:00:00,40.1,19.4,28.97,East,90,0.0,0.0,43,0.00,CLR,SCT,0.00,WeatherDisplay:10.37,2013-02-15 01:00:00,
2013-02-14 20:05:00,39.9,19.2,28.97,East,90,0.0,0.0,43,0.00,CLR,SCT,0.00,WeatherDisplay:10.37,2013-02-15 01:05:00,
2013-02-14 20:10:00,39.7,19.6,28.97,East,90,0.0,0.0,44,0.00,CLR,SCT,0.00,WeatherDisplay:10.37,2013-02-15 01:10:00,
2013-02-14 20:15:00,39.6,19.9,28.97,East,90,0.0,0.0,45,0.00,CLR,SCT,0.00,WeatherDisplay:10.37,2013-02-15 01:15:00,
2013-02-14 20:20:00,39.4,19.8,28.97,East,90,0.0,0.0,45,0.00,CLR,SCT,0.00,WeatherDisplay:10.37,2013-02-15 01:20:00,
2013-02-14 20:25:00,39.0,20.5,28.97,East,90,0.0,0.0,47,0.00,CLR,SCT,0.00,WeatherDisplay:10.37,2013-02-15 01:25:00,
2013-02-14 20:30:00,38.8,20.3,28.97,East,90,0.0,0.0,47,0.00,CLR,SCT,0.00,WeatherDisplay:10.37,2013-02-15 01:30:00,
2013-02-14 20:35:00,38.7,20.6,28.97,East,90,0.0,0.0,48,0.00,CLR,SCT,0.00,WeatherDisplay:10.37,2013-02-15 01:35:00,
2013-02-14 20:40:00,38.5,21.0,28.97,East,90,0.0,0.0,49,0.00,CLR,SCT,0.00,WeatherDisplay:10.37,2013-02-15 01:40:00,
2013-02-14 20:45:00,38.1,20.6,28.97,East,90,0.0,0.0,49,0.00,CLR,SCT,0.00,WeatherDisplay:10.37,2013-02-15 01:45:00,
2013-02-14 20:50:00,37.9,20.5,28.97,East,90,0.0,0.0,49,0.00,CLR,SCT,0.00,WeatherDisplay:10.37,2013-02-15 01:50:00,
2013-02-14 20:55:00,37.6,20.6,28.97,East,90,0.0,0.0,50,0.00,CLR,SCT,0.00,WeatherDisplay:10.37,2013-02-15 01:55:00,
2013-02-14 21:00:00,37.4,20.4,28.97,East,90,0.0,0.0,50,0.00,CLR,SCT,0.00,WeatherDisplay:10.37,2013-02-15 02:00:00,
2013-02-14 21:05:00,37.6,21.5,28.97,East,90,0.0,0.0,52,0.00,CLR,SCT,0.00,WeatherDisplay:10.37,2013-02-15 02:05:00,
2013-02-14 21:10:00,37.4,20.9,28.97,East,90,0.0,0.0,51,0.00,CLR,SCT,0.00,WeatherDisplay:10.37,2013-02-15 02:10:00,
2013-02-14 21:15:00,37.0,21.0,28.97,East,90,0.0,0.0,52,0.00,CLR,SCT,0.00,WeatherDisplay:10.37,2013-02-15 02:15:00,
2013-02-14 21:20:00,36.9,20.9,28.97,East,90,0.0,0.0,52,0.00,CLR,SCT,0.00,WeatherDisplay:10.37,2013-02-15 02:20:00,
2013-02-14 21:25:00,36.7,21.1,28.97,East,90,0.0,0.0,53,0.00,CLR,SCT,0.00,WeatherDisplay:10.37,2013-02-15 02:25:00,
2013-02-14 21:30:00,36.5,21.4,28.97,East,90,0.0,0.0,54,0.00,CLR,SCT,0.00,WeatherDisplay:10.37,2013-02-15 02:30:00,
2013-02-14 21:35:00,36.3,21.2,28.97,East,90,0.0,0.0,54,0.00,CLR,SCT,0.00,WeatherDisplay:10.37,2013-02-15 02:35:00,
2013-02-14 21:40:00,36.1,21.5,28.97,East,90,0.0,0.0,55,0.00,CLR,SCT,0.00,WeatherDisplay:10.37,2013-02-15 02:40:00,
2013-02-14 21:45:00,36.0,21.3,28.97,East,90,0.0,0.0,55,0.00,CLR,SCT,0.00,WeatherDisplay:10.37,2013-02-15 02:45:00,
2013-02-14 21:50:00,35.8,21.2,28.97,East,90,0.0,0.0,55,0.00,CLR,SCT,0.00,WeatherDisplay:10.37,2013-02-15 02:50:00,
2013-02-14 21:55:00,35.8,21.2,28.97,East,90,0.0,0.0,55,0.00,CLR,SCT,0.00,WeatherDisplay:10.37,2013-02-15 02:55:00,
2013-02-14 22:00:00,36.0,21.8,28.97,East,90,0.0,0.0,56,0.00,CLR,SCT,0.00,WeatherDisplay:10.37,2013-02-15 03:00:00,
2013-02-14 22:05:00,36.0,21.8,28.97,East,90,0.0,0.0,56,0.00,CLR,SCT,0.00,WeatherDisplay:10.37,2013-02-15 03:05:00,
2013-02-14 22:10:00,35.6,21.9,28.97,East,90,0.0,0.0,57,0.00,CLR,SCT,0.00,WeatherDisplay:10.37,2013-02-15 03:10:00,
2013-02-14 22:15:00,35.4,21.7,28.97,East,90,0.0,0.0,57,0.00,CLR,SCT,0.00,WeatherDisplay:10.37,2013-02-15 03:15:00,
2013-02-14 22:20:00,35.1,21.3,28.97,East,90,0.0,0.0,57,0.00,CLR,SCT,0.00,WeatherDisplay:10.37,2013-02-15 03:20:00,
2013-02-14 22:25:00,34.9,21.2,29.00,East,90,0.0,0.0,57,0.00,CLR,SCT,0.00,WeatherDisplay:10.37,2013-02-15 03:25:00,
2013-02-14 22:30:00,34.9,22.0,29.00,East,90,0.0,0.0,59,0.00,CLR,SCT,0.00,WeatherDisplay:10.37,2013-02-15 03:30:00,
2013-02-14 22:35:00,34.5,21.7,29.00,East,90,0.0,0.0,59,0.00,CLR,SCT,0.00,WeatherDisplay:10.37,2013-02-15 03:35:00,
2013-02-14 22:40:00,34.3,21.9,29.00,East,90,0.0,0.0,60,0.00,CLR,SCT,0.00,WeatherDisplay:10.37,2013-02-15 03:40:00,
2013-02-14 22:45:00,34.3,22.3,29.00,East,90,0.0,0.0,61,0.00,CLR,SCT,0.00,WeatherDisplay:10.37,2013-02-15 03:45:00,
2013-02-14 22:50:00,34.2,22.1,29.00,East,90,0.0,0.0,61,0.00,CLR,SCT,0.00,WeatherDisplay:10.37,2013-02-15 03:50:00,
2013-02-14 22:55:00,34.0,21.9,29.00,East,90,0.0,0.0,61,0.00,CLR,SCT,0.00,WeatherDisplay:10.37,2013-02-15 03:55:00,
2013-02-14 23:00:00,33.8,22.1,29.00,East,90,0.0,0.0,62,0.00,CLR,SCT,0.00,WeatherDisplay:10.37,2013-02-15 04:00:00,
2013-02-14 23:05:00,33.8,22.1,29.00,East,90,0.0,0.0,62,0.00,CLR,SCT,0.00,WeatherDisplay:10.37,2013-02-15 04:05:00,
2013-02-14 23:10:00,33.6,22.4,29.00,East,90,0.0,0.0,63,0.00,CLR,SCT,0.00,WeatherDisplay:10.37,2013-02-15 04:10:00,
2013-02-14 23:15:00,33.4,21.8,29.00,East,90,0.0,0.0,62,0.00,CLR,SCT,0.00,WeatherDisplay:10.37,2013-02-15 04:15:00,
2013-02-14 23:20:00,33.3,22.0,29.00,East,90,0.0,0.0,63,0.00,CLR,SCT,0.00,WeatherDisplay:10.37,2013-02-15 04:20:00,
2013-02-14 23:25:00,33.1,21.8,29.00,East,90,0.0,0.0,63,0.00,CLR,SCT,0.00,WeatherDisplay:10.37,2013-02-15 04:25:00,
2013-02-14 23:30:00,33.1,22.2,29.00,East,90,0.0,0.0,64,0.00,CLR,SCT,0.00,WeatherDisplay:10.37,2013-02-15 04:30:00,
2013-02-14 23:35:00,33.1,22.6,29.00,East,90,0.0,0.0,65,0.00,CLR,SCT,0.00,WeatherDisplay:10.37,2013-02-15 04:35:00,
2013-02-14 23:40:00,32.9,22.0,29.00,East,90,0.0,0.0,64,0.00,CLR,SCT,0.00,WeatherDisplay:10.37,2013-02-15 04:40:00,
2013-02-14 23:45:00,32.7,21.9,29.00,East,90,0.0,0.0,64,0.00,CLR,SCT,0.00,WeatherDisplay:10.37,2013-02-15 04:45:00,
2013-02-14 23:50:00,32.7,21.9,29.00,East,90,0.0,0.0,64,0.00,CLR,SCT,0.00,WeatherDisplay:10.37,2013-02-15 04:50:00,
2013-02-14 23:55:00,32.5,22.1,29.03,East,90,0.0,0.0,65,0.00,CLR,SCT,0.00,WeatherDisplay:10.37,2013-02-15 04:55:00,